createdAt,value
2022-11-18T00:00:26.058Z,948.12
2022-11-18T00:01:26.038Z,948.14
2022-11-18T00:02:26.034Z,948.15
2022-11-18T00:03:26.000Z,948.21
2022-11-18T00:04:26.174Z,948.11
2022-11-18T00:05:25.983Z,948.16
2022-11-18T00:06:25.957Z,948.17
2022-11-18T00:07:26.103Z,948.12
2022-11-18T00:08:25.952Z,948.13
2022-11-18T00:09:25.961Z,948.13
2022-11-18T00:10:26.008Z,948.12
2022-11-18T00:11:25.900Z,948.11
2022-11-18T00:12:25.884Z,948.15
2022-11-18T00:13:25.905Z,948.09
2022-11-18T00:14:25.888Z,948.07
2022-11-18T00:15:30.499Z,948.08
2022-11-18T00:16:26.842Z,948.11
2022-11-18T00:17:25.830Z,948.14
2022-11-18T00:18:25.916Z,948.22
2022-11-18T00:19:25.833Z,948.11
2022-11-18T00:20:25.833Z,948.14
2022-11-18T00:21:25.816Z,948.12
2022-11-18T00:22:29.877Z,948.17
2022-11-18T00:23:25.782Z,948.12
2022-11-18T00:24:25.764Z,948.16
2022-11-18T00:25:25.771Z,948.17
2022-11-18T00:26:25.744Z,948.13
2022-11-18T00:27:25.774Z,948.14
2022-11-18T00:28:25.768Z,948.13
2022-11-18T00:29:25.710Z,948.10
2022-11-18T00:30:25.698Z,948.10
2022-11-18T00:31:25.700Z,948.09
2022-11-18T00:32:25.660Z,948.08
2022-11-18T00:33:25.651Z,948.03
2022-11-18T00:34:25.759Z,948.06
2022-11-18T00:35:25.662Z,948.04
2022-11-18T00:36:25.617Z,948.07
2022-11-18T00:37:25.639Z,948.03
2022-11-18T00:38:25.628Z,947.94
2022-11-18T00:39:25.596Z,947.94
2022-11-18T00:40:25.599Z,947.91
2022-11-18T00:41:25.580Z,947.91
2022-11-18T00:42:25.573Z,947.90
2022-11-18T00:43:25.576Z,947.93
2022-11-18T00:44:25.562Z,947.87
2022-11-18T00:45:25.579Z,947.85
2022-11-18T00:46:25.503Z,947.91
2022-11-18T00:47:25.532Z,947.87
2022-11-18T00:48:25.508Z,947.82
2022-11-18T00:49:25.505Z,947.84
2022-11-18T00:50:25.456Z,947.83
2022-11-18T00:51:25.463Z,947.84
2022-11-18T00:52:25.508Z,947.82
2022-11-18T00:53:25.454Z,947.80
2022-11-18T00:54:25.431Z,947.80
2022-11-18T00:55:25.438Z,947.76
2022-11-18T00:56:25.386Z,947.75
2022-11-18T00:57:25.377Z,947.78
2022-11-18T00:58:25.414Z,947.78
2022-11-18T00:59:25.377Z,947.76
2022-11-18T01:00:25.387Z,947.70
2022-11-18T01:01:25.433Z,947.67
2022-11-18T01:02:25.320Z,947.73
2022-11-18T01:03:25.322Z,947.74
2022-11-18T01:04:25.349Z,947.72
2022-11-18T01:05:25.321Z,947.66
2022-11-18T01:06:25.310Z,947.76
2022-11-18T01:07:25.356Z,947.71
2022-11-18T01:08:25.280Z,947.72
2022-11-18T01:09:25.283Z,947.75
2022-11-18T01:10:25.256Z,947.74
2022-11-18T01:11:25.257Z,947.72
2022-11-18T01:12:25.246Z,947.73
2022-11-18T01:13:25.209Z,947.76
2022-11-18T01:14:25.225Z,947.68
2022-11-18T01:15:25.192Z,947.70
2022-11-18T01:16:25.188Z,947.67
2022-11-18T01:17:25.171Z,947.69
2022-11-18T01:18:25.152Z,947.70
2022-11-18T01:19:25.132Z,947.74
2022-11-18T01:20:25.156Z,947.73
2022-11-18T01:21:25.120Z,947.74
2022-11-18T01:22:25.126Z,947.73
2022-11-18T01:23:25.118Z,947.73
2022-11-18T01:24:25.149Z,947.77
2022-11-18T01:25:25.062Z,947.78
2022-11-18T01:26:25.066Z,947.78
2022-11-18T01:27:25.087Z,947.81
2022-11-18T01:28:25.058Z,947.77
2022-11-18T01:29:25.049Z,947.72
2022-11-18T01:30:25.050Z,947.73
2022-11-18T01:31:25.035Z,947.75
2022-11-18T01:32:25.830Z,947.72
2022-11-18T01:33:25.003Z,947.77
2022-11-18T01:34:24.988Z,947.71
2022-11-18T01:35:24.951Z,947.69
2022-11-18T01:36:24.961Z,947.67
2022-11-18T01:37:24.995Z,947.70
2022-11-18T01:38:24.963Z,947.71
2022-11-18T01:39:24.941Z,947.70
2022-11-18T01:40:24.931Z,947.74
2022-11-18T01:41:24.898Z,947.66
2022-11-18T01:42:24.905Z,947.67
2022-11-18T01:43:24.896Z,947.68
2022-11-18T01:44:24.874Z,947.62
2022-11-18T01:45:24.853Z,947.59
2022-11-18T01:46:24.828Z,947.65
2022-11-18T01:47:24.827Z,947.57
2022-11-18T01:48:24.896Z,947.59
2022-11-18T01:49:24.817Z,947.57
2022-11-18T01:50:24.794Z,947.62
2022-11-18T01:51:24.788Z,947.58
2022-11-18T01:52:24.771Z,947.54
2022-11-18T01:53:24.747Z,947.56
2022-11-18T01:54:24.783Z,947.56
2022-11-18T01:55:24.723Z,947.57
2022-11-18T01:56:24.769Z,947.51
2022-11-18T01:57:24.739Z,947.53
2022-11-18T01:58:24.735Z,947.51
2022-11-18T01:59:24.698Z,947.50
2022-11-18T02:00:24.678Z,947.50
2022-11-18T02:01:24.745Z,947.51
2022-11-18T02:02:24.772Z,947.52
2022-11-18T02:03:24.687Z,947.50
2022-11-18T02:04:24.646Z,947.52
2022-11-18T02:05:24.642Z,947.53
2022-11-18T02:06:24.610Z,947.48
2022-11-18T02:07:24.720Z,947.50
2022-11-18T02:08:24.654Z,947.53
2022-11-18T02:09:24.570Z,947.48
2022-11-18T02:10:24.551Z,947.55
2022-11-18T02:11:24.659Z,947.56
2022-11-18T02:12:24.606Z,947.55
2022-11-18T02:13:24.538Z,947.43
2022-11-18T02:14:24.549Z,947.47
2022-11-18T02:15:24.517Z,947.42
2022-11-18T02:16:24.557Z,947.40
2022-11-18T02:17:24.491Z,947.35
2022-11-18T02:18:24.480Z,947.33
2022-11-18T02:19:24.488Z,947.37
2022-11-18T02:20:24.482Z,947.41
2022-11-18T02:21:24.428Z,947.37
2022-11-18T02:22:24.436Z,947.40
2022-11-18T02:23:24.440Z,947.38
2022-11-18T02:24:24.424Z,947.39
2022-11-18T02:25:24.414Z,947.40
2022-11-18T02:26:24.373Z,947.42
2022-11-18T02:27:24.379Z,947.36
2022-11-18T02:28:24.352Z,947.35
2022-11-18T02:29:24.336Z,947.37
2022-11-18T02:30:24.380Z,947.37
2022-11-18T02:31:24.335Z,947.40
2022-11-18T02:32:24.302Z,947.40
2022-11-18T02:33:24.367Z,947.39
2022-11-18T02:34:24.292Z,947.38
2022-11-18T02:35:24.316Z,947.40
2022-11-18T02:36:24.274Z,947.41
2022-11-18T02:37:24.279Z,947.42
2022-11-18T02:38:24.235Z,947.42
2022-11-18T02:39:24.226Z,947.35
2022-11-18T02:40:24.240Z,947.39
2022-11-18T02:41:24.338Z,947.44
2022-11-18T02:42:24.238Z,947.35
2022-11-18T02:43:24.193Z,947.42
2022-11-18T02:44:24.187Z,947.40
2022-11-18T02:45:24.168Z,947.41
2022-11-18T02:46:24.147Z,947.36
2022-11-18T02:47:24.223Z,947.34
2022-11-18T02:48:24.167Z,947.33
2022-11-18T02:49:24.112Z,947.39
2022-11-18T02:50:24.104Z,947.33
2022-11-18T02:51:24.119Z,947.39
2022-11-18T02:52:24.115Z,947.34
2022-11-18T02:53:24.081Z,947.39
2022-11-18T02:54:24.103Z,947.43
2022-11-18T02:55:24.109Z,947.45
2022-11-18T02:56:24.038Z,947.44
2022-11-18T02:57:24.052Z,947.45
2022-11-18T02:58:24.024Z,947.42
2022-11-18T02:59:24.034Z,947.46
2022-11-18T03:00:23.986Z,947.48
2022-11-18T03:01:24.010Z,947.49
2022-11-18T03:02:23.972Z,947.44
2022-11-18T03:03:24.133Z,947.48
2022-11-18T03:04:23.968Z,947.46
2022-11-18T03:05:23.972Z,947.41
2022-11-18T03:06:23.985Z,947.47
2022-11-18T03:07:24.005Z,947.41
2022-11-18T03:08:23.910Z,947.43
2022-11-18T03:09:23.927Z,947.39
2022-11-18T03:10:23.901Z,947.43
2022-11-18T03:11:23.950Z,947.45
2022-11-18T03:12:23.850Z,947.49
2022-11-18T03:13:24.365Z,947.49
2022-11-18T03:14:23.828Z,947.49
2022-11-18T03:15:23.872Z,947.52
2022-11-18T03:16:23.839Z,947.53
2022-11-18T03:17:23.814Z,947.47
2022-11-18T03:18:23.787Z,947.49
2022-11-18T03:19:23.805Z,947.54
2022-11-18T03:20:23.801Z,947.48
2022-11-18T03:21:23.781Z,947.50
2022-11-18T03:22:23.769Z,947.47
2022-11-18T03:23:23.776Z,947.51
2022-11-18T03:24:23.728Z,947.47
2022-11-18T03:25:23.812Z,947.50
2022-11-18T03:26:23.714Z,947.43
2022-11-18T03:27:23.716Z,947.46
2022-11-18T03:28:23.733Z,947.50
2022-11-18T03:29:23.668Z,947.50
2022-11-18T03:30:23.650Z,947.47
2022-11-18T03:31:23.638Z,947.50
2022-11-18T03:32:23.642Z,947.49
2022-11-18T03:33:23.674Z,947.49
2022-11-18T03:34:23.603Z,947.55
2022-11-18T03:35:23.633Z,947.51
2022-11-18T03:36:23.611Z,947.55
2022-11-18T03:37:23.606Z,947.57
2022-11-18T03:38:23.592Z,947.59
2022-11-18T03:39:23.581Z,947.55
2022-11-18T03:40:23.620Z,947.56
2022-11-18T03:41:23.527Z,947.58
2022-11-18T03:42:23.536Z,947.60
2022-11-18T03:43:23.553Z,947.58
2022-11-18T03:44:23.572Z,947.58
2022-11-18T03:45:23.524Z,947.60
2022-11-18T03:46:23.471Z,947.61
2022-11-18T03:47:23.581Z,947.59
2022-11-18T03:48:23.467Z,947.60
2022-11-18T03:49:23.468Z,947.62
2022-11-18T03:50:23.452Z,947.57
2022-11-18T03:51:23.464Z,947.64
2022-11-18T03:52:23.461Z,947.70
2022-11-18T03:53:23.404Z,947.66
2022-11-18T03:54:23.419Z,947.75
2022-11-18T03:55:23.404Z,947.73
2022-11-18T03:56:23.357Z,947.73
2022-11-18T03:57:23.361Z,947.72
2022-11-18T03:58:23.433Z,947.74
2022-11-18T03:59:23.339Z,947.71
2022-11-18T04:00:23.322Z,947.72
2022-11-18T04:01:23.423Z,947.75
2022-11-18T04:02:23.327Z,947.77
2022-11-18T04:03:23.303Z,947.75
2022-11-18T04:04:23.288Z,947.73
2022-11-18T04:05:23.256Z,947.74
2022-11-18T04:06:23.294Z,947.73
2022-11-18T04:07:23.437Z,947.76
2022-11-18T04:08:23.221Z,947.78
2022-11-18T04:09:23.220Z,947.79
2022-11-18T04:10:23.210Z,947.80
2022-11-18T04:11:23.248Z,947.80
2022-11-18T04:12:23.197Z,947.78
2022-11-18T04:13:23.168Z,947.81
2022-11-18T04:14:23.161Z,947.87
2022-11-18T04:15:23.142Z,947.83
2022-11-18T04:16:23.170Z,947.83
2022-11-18T04:17:23.145Z,947.87
2022-11-18T04:18:23.135Z,947.85
2022-11-18T04:19:23.427Z,947.84
2022-11-18T04:20:23.093Z,947.87
2022-11-18T04:21:23.103Z,947.84
2022-11-18T04:22:23.092Z,947.83
2022-11-18T04:23:23.094Z,947.84
2022-11-18T04:24:23.072Z,947.86
2022-11-18T04:25:23.209Z,947.88
2022-11-18T04:26:23.027Z,947.83
2022-11-18T04:27:23.024Z,947.83
2022-11-18T04:28:23.034Z,947.81
2022-11-18T04:29:23.023Z,947.82
2022-11-18T04:30:23.015Z,947.85
2022-11-18T04:31:22.966Z,947.90
2022-11-18T04:32:22.957Z,947.84
2022-11-18T04:33:22.966Z,947.91
2022-11-18T04:34:22.940Z,947.86
2022-11-18T04:35:22.941Z,947.89
2022-11-18T04:36:22.965Z,947.91
2022-11-18T04:37:22.905Z,947.88
2022-11-18T04:38:22.898Z,947.85
2022-11-18T04:39:22.908Z,947.83
2022-11-18T04:40:22.883Z,947.83
2022-11-18T04:41:22.876Z,947.84
2022-11-18T04:42:22.889Z,947.87
2022-11-18T04:43:22.829Z,947.82
2022-11-18T04:44:22.852Z,947.79
2022-11-18T04:45:22.828Z,947.78
2022-11-18T04:46:22.816Z,947.77
2022-11-18T04:47:22.826Z,947.86
2022-11-18T04:48:23.343Z,947.82
2022-11-18T04:49:22.763Z,947.87
2022-11-18T04:50:22.776Z,947.92
2022-11-18T04:51:22.761Z,947.90
2022-11-18T04:52:22.746Z,947.89
2022-11-18T04:53:22.716Z,947.88
2022-11-18T04:54:22.792Z,947.84
2022-11-18T04:55:22.754Z,947.85
2022-11-18T04:56:22.703Z,947.85
2022-11-18T04:57:22.688Z,947.83
2022-11-18T04:58:22.678Z,947.84
2022-11-18T04:59:22.711Z,947.79
2022-11-18T05:00:22.640Z,947.80
2022-11-18T05:01:22.704Z,947.79
2022-11-18T05:02:22.620Z,947.81
2022-11-18T05:03:22.647Z,947.74
2022-11-18T05:04:22.620Z,947.73
2022-11-18T05:05:22.588Z,947.73
2022-11-18T05:06:22.589Z,947.74
2022-11-18T05:07:22.664Z,947.73
2022-11-18T05:08:22.554Z,947.72
2022-11-18T05:09:25.980Z,947.75
2022-11-18T05:10:23.583Z,947.74
2022-11-18T05:11:22.594Z,947.75
2022-11-18T05:12:22.513Z,947.78
2022-11-18T05:13:22.504Z,947.74
2022-11-18T05:14:22.489Z,947.72
2022-11-18T05:15:22.508Z,947.75
2022-11-18T05:16:22.487Z,947.68
2022-11-18T05:17:22.448Z,947.71
2022-11-18T05:18:22.482Z,947.75
2022-11-18T05:19:22.439Z,947.75
2022-11-18T05:20:22.456Z,947.71
2022-11-18T05:21:22.406Z,947.69
2022-11-18T05:22:22.461Z,947.71
2022-11-18T05:23:22.380Z,947.74
2022-11-18T05:24:22.372Z,947.77
2022-11-18T05:25:22.401Z,947.75
2022-11-18T05:26:22.404Z,947.71
2022-11-18T05:27:22.378Z,947.75
2022-11-18T05:28:22.330Z,947.75
2022-11-18T05:29:22.339Z,947.73
2022-11-18T05:30:22.322Z,947.74
2022-11-18T05:31:22.311Z,947.75
2022-11-18T05:32:22.329Z,947.78
2022-11-18T05:33:22.267Z,947.77
2022-11-18T05:34:22.299Z,947.76
2022-11-18T05:35:22.257Z,947.77
2022-11-18T05:36:22.267Z,947.75
2022-11-18T05:37:22.240Z,947.70
2022-11-18T05:38:22.232Z,947.74
2022-11-18T05:39:22.246Z,947.73
2022-11-18T05:40:22.210Z,947.68
2022-11-18T05:41:22.196Z,947.71
2022-11-18T05:42:22.173Z,947.71
2022-11-18T05:43:22.194Z,947.71
2022-11-18T05:44:22.198Z,947.74
2022-11-18T05:45:22.132Z,947.72
2022-11-18T05:46:22.135Z,947.80
2022-11-18T05:47:22.136Z,947.69
2022-11-18T05:48:22.119Z,947.71
2022-11-18T05:49:22.124Z,947.72
2022-11-18T05:50:22.123Z,947.73
2022-11-18T05:51:22.067Z,947.73
2022-11-18T05:52:22.082Z,947.73
2022-11-18T05:53:22.065Z,947.72
2022-11-18T05:54:22.043Z,947.73
2022-11-18T05:55:22.079Z,947.75
2022-11-18T05:56:22.010Z,947.75
2022-11-18T05:57:22.067Z,947.80
2022-11-18T05:58:22.016Z,947.80
2022-11-18T05:59:22.126Z,947.83
2022-11-18T06:00:22.019Z,947.80
2022-11-18T06:01:21.952Z,947.75
2022-11-18T06:02:22.062Z,947.81
2022-11-18T06:03:26.113Z,947.85
2022-11-18T06:04:22.948Z,947.82
2022-11-18T06:05:21.925Z,947.81
2022-11-18T06:06:21.949Z,947.81
2022-11-18T06:07:21.925Z,947.78
2022-11-18T06:08:21.877Z,947.81
2022-11-18T06:09:21.875Z,947.79
2022-11-18T06:10:21.891Z,947.74
2022-11-18T06:11:21.856Z,947.78
2022-11-18T06:12:21.906Z,947.78
2022-11-18T06:13:21.823Z,947.80
2022-11-18T06:14:21.816Z,947.78
2022-11-18T06:15:21.825Z,947.83
2022-11-18T06:16:21.790Z,947.84
2022-11-18T06:17:21.797Z,947.84
2022-11-18T06:18:21.781Z,947.93
2022-11-18T06:19:21.752Z,947.96
2022-11-18T06:20:21.801Z,947.93
2022-11-18T06:21:21.755Z,947.99
2022-11-18T06:22:21.743Z,948.00
2022-11-18T06:23:21.715Z,947.97
2022-11-18T06:24:21.698Z,948.00
2022-11-18T06:25:21.700Z,948.01
2022-11-18T06:26:21.696Z,947.98
2022-11-18T06:27:21.696Z,947.97
2022-11-18T06:28:21.680Z,948.02
2022-11-18T06:29:27.287Z,948.03
2022-11-18T06:30:22.639Z,948.05
2022-11-18T06:31:21.649Z,948.04
2022-11-18T06:32:21.638Z,948.06
2022-11-18T06:33:21.641Z,948.09
2022-11-18T06:34:21.610Z,948.05
2022-11-18T06:35:21.605Z,948.16
2022-11-18T06:36:21.576Z,948.13
2022-11-18T06:37:21.557Z,948.17
2022-11-18T06:38:21.558Z,948.13
2022-11-18T06:39:21.574Z,948.17
2022-11-18T06:40:21.661Z,948.20
2022-11-18T06:41:21.587Z,948.28
2022-11-18T06:42:21.502Z,948.29
2022-11-18T06:43:21.497Z,948.30
2022-11-18T06:44:21.496Z,948.31
2022-11-18T06:45:21.563Z,948.39
2022-11-18T06:46:21.479Z,948.37
2022-11-18T06:47:21.541Z,948.40
2022-11-18T06:48:21.430Z,948.40
2022-11-18T06:49:21.418Z,948.49
2022-11-18T06:50:21.445Z,948.47
2022-11-18T06:51:21.417Z,948.43
2022-11-18T06:52:21.563Z,948.51
2022-11-18T06:53:21.528Z,948.56
2022-11-18T06:54:21.369Z,948.53
2022-11-18T06:55:21.383Z,948.56
2022-11-18T06:56:21.363Z,948.55
2022-11-18T06:57:21.396Z,948.57
2022-11-18T06:58:21.316Z,948.61
2022-11-18T06:59:21.301Z,948.54
2022-11-18T07:00:21.316Z,948.60
2022-11-18T07:01:21.375Z,948.63
2022-11-18T07:02:21.354Z,948.65
2022-11-18T07:03:21.301Z,948.62
2022-11-18T07:04:21.248Z,948.67
2022-11-18T07:05:21.351Z,948.66
2022-11-18T07:06:21.228Z,948.68
2022-11-18T07:07:21.302Z,948.73
2022-11-18T07:08:21.240Z,948.74
2022-11-18T07:09:21.352Z,948.78
2022-11-18T07:10:21.238Z,948.78
2022-11-18T07:11:21.218Z,948.82
2022-11-18T07:12:21.172Z,948.77
2022-11-18T07:13:21.183Z,948.77
2022-11-18T07:14:21.157Z,948.81
2022-11-18T07:15:21.148Z,948.77
2022-11-18T07:16:21.119Z,948.83
2022-11-18T07:17:21.169Z,948.86
2022-11-18T07:18:21.112Z,948.90
2022-11-18T07:19:21.102Z,948.87
2022-11-18T07:20:21.128Z,948.90
2022-11-18T07:21:21.113Z,948.95
2022-11-18T07:22:21.059Z,948.93
2022-11-18T07:23:21.056Z,948.94
2022-11-18T07:24:21.043Z,948.95
2022-11-18T07:25:21.049Z,948.99
2022-11-18T07:26:21.049Z,948.99
2022-11-18T07:27:20.988Z,949.01
2022-11-18T07:28:20.989Z,949.06
2022-11-18T07:29:21.009Z,949.04
2022-11-18T07:30:20.969Z,949.07
2022-11-18T07:31:20.950Z,949.06
2022-11-18T07:32:20.931Z,949.09
2022-11-18T07:33:20.968Z,949.20
2022-11-18T07:34:20.912Z,949.13
2022-11-18T07:35:20.947Z,949.17
2022-11-18T07:36:20.929Z,949.17
2022-11-18T07:37:20.908Z,949.22
2022-11-18T07:38:20.903Z,949.22
2022-11-18T07:39:21.201Z,949.22
2022-11-18T07:40:20.848Z,949.27
2022-11-18T07:41:20.868Z,949.26
2022-11-18T07:42:20.864Z,949.23
2022-11-18T07:43:20.835Z,949.20
2022-11-18T07:44:20.837Z,949.25
2022-11-18T07:45:20.800Z,949.30
2022-11-18T07:46:20.925Z,949.35
2022-11-18T07:47:20.764Z,949.30
2022-11-18T07:48:20.771Z,949.39
2022-11-18T07:49:21.037Z,949.31
2022-11-18T07:50:20.742Z,949.36
2022-11-18T07:51:20.817Z,949.35
2022-11-18T07:52:20.725Z,949.34
2022-11-18T07:53:20.740Z,949.45
2022-11-18T07:54:20.703Z,949.40
2022-11-18T07:55:20.717Z,949.44
2022-11-18T07:56:20.665Z,949.51
2022-11-18T07:57:20.764Z,949.44
2022-11-18T07:58:20.660Z,949.46
2022-11-18T07:59:20.957Z,949.52
2022-11-18T08:00:20.657Z,949.50
2022-11-18T08:01:20.648Z,949.57
2022-11-18T08:02:20.619Z,949.53
2022-11-18T08:03:20.594Z,949.61
2022-11-18T08:04:20.571Z,949.60
2022-11-18T08:05:20.659Z,949.64
2022-11-18T08:06:20.549Z,949.59
2022-11-18T08:07:20.688Z,949.61
2022-11-18T08:08:20.535Z,949.62
2022-11-18T08:09:20.749Z,949.69
2022-11-18T08:10:20.530Z,949.71
2022-11-18T08:11:22.647Z,949.64
2022-11-18T08:12:20.554Z,949.64
2022-11-18T08:13:20.482Z,949.70
2022-11-18T08:14:20.469Z,949.64
2022-11-18T08:15:20.479Z,949.68
2022-11-18T08:16:20.455Z,949.73
2022-11-18T08:17:20.439Z,949.72
2022-11-18T08:18:20.480Z,949.68
2022-11-18T08:19:20.628Z,949.74
2022-11-18T08:20:20.421Z,949.80
2022-11-18T08:21:28.949Z,949.76
2022-11-18T08:22:20.474Z,949.78
2022-11-18T08:23:20.389Z,949.80
2022-11-18T08:24:20.379Z,949.78
2022-11-18T08:25:20.340Z,949.82
2022-11-18T08:26:20.329Z,949.81
2022-11-18T08:27:20.388Z,949.88
2022-11-18T08:28:20.375Z,949.76
2022-11-18T08:29:24.684Z,949.88
2022-11-18T08:30:20.308Z,949.85
2022-11-18T08:31:20.268Z,949.85
2022-11-18T08:32:20.331Z,949.87
2022-11-18T08:33:20.324Z,949.91
2022-11-18T08:34:20.270Z,949.95
2022-11-18T08:35:20.248Z,949.92
2022-11-18T08:36:20.247Z,949.85
2022-11-18T08:37:20.211Z,949.88
2022-11-18T08:38:20.221Z,949.88
2022-11-18T08:39:20.323Z,949.92
2022-11-18T08:40:20.179Z,949.92
2022-11-18T08:41:20.195Z,949.91
2022-11-18T08:42:23.287Z,949.93
2022-11-18T08:43:20.141Z,949.95
2022-11-18T08:44:20.138Z,949.91
2022-11-18T08:45:20.144Z,950.02
2022-11-18T08:46:20.119Z,950.06
2022-11-18T08:47:20.126Z,950.00
2022-11-18T08:48:20.078Z,950.02
2022-11-18T08:49:20.515Z,950.07
2022-11-18T08:50:20.055Z,950.08
2022-11-18T08:51:20.084Z,950.16
2022-11-18T08:52:20.048Z,950.08
2022-11-18T08:53:20.064Z,950.10
2022-11-18T08:54:20.009Z,950.15
2022-11-18T08:55:20.029Z,950.09
2022-11-18T08:56:20.021Z,950.15
2022-11-18T08:57:20.024Z,950.06
2022-11-18T08:58:19.987Z,950.13
2022-11-18T08:59:20.380Z,950.09
2022-11-18T09:00:20.004Z,950.10
2022-11-18T09:01:20.123Z,950.13
2022-11-18T09:02:19.952Z,950.06
2022-11-18T09:03:19.930Z,950.06
2022-11-18T09:04:19.935Z,950.15
2022-11-18T09:05:19.886Z,950.05
2022-11-18T09:06:19.886Z,950.07
2022-11-18T09:07:19.999Z,950.11
2022-11-18T09:08:19.895Z,950.09
2022-11-18T09:09:20.221Z,950.10
2022-11-18T09:10:19.871Z,950.08
2022-11-18T09:11:19.836Z,950.08
2022-11-18T09:12:19.817Z,950.09
2022-11-18T09:13:47.504Z,950.09
2022-11-18T09:15:11.861Z,950.12
2022-11-18T09:15:21.276Z,950.17
2022-11-18T09:16:24.885Z,950.20
2022-11-18T09:17:20.775Z,950.21
2022-11-18T09:18:19.756Z,950.24
2022-11-18T09:19:48.778Z,950.18
2022-11-18T09:20:20.771Z,950.20
2022-11-18T09:21:19.747Z,950.17
2022-11-18T09:22:19.693Z,950.21
2022-11-18T09:23:19.688Z,950.24
2022-11-18T09:24:20.145Z,950.24
2022-11-18T09:25:19.671Z,950.24
2022-11-18T09:26:19.694Z,950.23
2022-11-18T09:27:19.703Z,950.23
2022-11-18T09:28:19.628Z,950.27
2022-11-18T09:29:19.628Z,950.26
2022-11-18T09:30:19.641Z,950.29
2022-11-18T09:31:19.612Z,950.31
2022-11-18T09:32:19.635Z,950.26
2022-11-18T09:33:20.680Z,950.31
2022-11-18T09:34:19.936Z,950.31
2022-11-18T09:35:19.569Z,950.25
2022-11-18T09:36:19.608Z,950.21
2022-11-18T09:37:19.540Z,950.24
2022-11-18T09:38:19.542Z,950.27
2022-11-18T09:39:19.711Z,950.25
2022-11-18T09:40:19.577Z,950.28
2022-11-18T09:41:19.506Z,950.31
2022-11-18T09:42:19.483Z,950.35
2022-11-18T09:43:19.560Z,950.29
2022-11-18T09:44:19.444Z,950.34
2022-11-18T09:45:24.287Z,950.31
2022-11-18T09:46:20.436Z,950.31
2022-11-18T09:47:19.452Z,950.34
2022-11-18T09:48:19.434Z,950.37
2022-11-18T09:49:19.655Z,950.37
2022-11-18T09:50:49.071Z,950.43
2022-11-18T09:51:20.369Z,950.42
2022-11-18T09:52:19.435Z,950.51
2022-11-18T09:53:19.354Z,950.42
2022-11-18T09:54:19.895Z,950.46
2022-11-18T09:55:19.375Z,950.45
2022-11-18T09:56:19.373Z,950.50
2022-11-18T09:57:19.310Z,950.46
2022-11-18T09:58:19.383Z,950.50
2022-11-18T09:59:19.351Z,950.48
2022-11-18T10:00:19.287Z,950.52
2022-11-18T10:01:19.349Z,950.56
2022-11-18T10:02:19.303Z,950.58
2022-11-18T10:03:19.255Z,950.53
2022-11-18T10:04:19.470Z,950.51
2022-11-18T10:05:19.236Z,950.57
2022-11-18T10:06:23.352Z,950.54
2022-11-18T10:07:19.297Z,950.49
2022-11-18T10:08:19.182Z,950.61
2022-11-18T10:09:19.191Z,950.56
2022-11-18T10:10:19.164Z,950.59
2022-11-18T10:11:19.178Z,950.57
2022-11-18T10:12:19.172Z,950.60
2022-11-18T10:13:19.175Z,950.67
2022-11-18T10:14:19.476Z,950.60
2022-11-18T10:15:19.148Z,950.61
2022-11-18T10:16:19.102Z,950.69
2022-11-18T10:17:19.097Z,950.58
2022-11-18T10:18:44.907Z,950.61
2022-11-18T10:19:20.053Z,950.63
2022-11-18T10:20:19.166Z,950.68
2022-11-18T10:21:19.035Z,950.66
2022-11-18T10:22:24.043Z,950.65
2022-11-18T10:23:20.034Z,950.62
2022-11-18T10:24:19.409Z,950.61
2022-11-18T10:25:18.991Z,950.55
2022-11-18T10:26:18.979Z,950.59
2022-11-18T10:27:19.019Z,950.58
2022-11-18T10:28:18.979Z,950.58
2022-11-18T10:29:18.982Z,950.63
2022-11-18T10:30:18.987Z,950.67
2022-11-18T10:31:18.990Z,950.66
2022-11-18T10:32:18.936Z,950.65
2022-11-18T10:33:18.951Z,950.64
2022-11-18T10:34:19.207Z,950.68
2022-11-18T10:35:18.871Z,950.66
2022-11-18T10:36:18.928Z,950.65
2022-11-18T10:37:18.926Z,950.60
2022-11-18T10:38:18.875Z,950.60
2022-11-18T10:39:18.861Z,950.66
2022-11-18T10:40:18.883Z,950.67
2022-11-18T10:41:18.856Z,950.68
2022-11-18T10:42:18.800Z,950.66
2022-11-18T10:43:18.807Z,950.69
2022-11-18T10:44:19.170Z,950.69
2022-11-18T10:45:18.780Z,950.60
2022-11-18T10:46:18.812Z,950.62
2022-11-18T10:47:18.756Z,950.63
2022-11-18T10:48:18.754Z,950.68
2022-11-18T10:49:18.746Z,950.68
2022-11-18T10:50:18.853Z,950.58
2022-11-18T10:51:18.721Z,950.67
2022-11-18T10:52:18.687Z,950.61
2022-11-18T10:53:18.681Z,950.64
2022-11-18T10:54:19.111Z,950.64
2022-11-18T10:55:18.688Z,950.65
2022-11-18T10:56:18.660Z,950.60
2022-11-18T10:57:18.654Z,950.62
2022-11-18T10:58:18.634Z,950.62
2022-11-18T10:59:18.607Z,950.65
2022-11-18T11:00:18.625Z,950.66
2022-11-18T11:01:18.672Z,950.68
2022-11-18T11:02:18.679Z,950.63
2022-11-18T11:03:18.576Z,950.67
2022-11-18T11:04:18.850Z,950.60
2022-11-18T11:05:18.547Z,950.64
2022-11-18T11:06:18.529Z,950.62
2022-11-18T11:07:18.591Z,950.69
2022-11-18T11:08:35.889Z,950.64
2022-11-18T11:09:19.492Z,950.67
2022-11-18T11:10:18.475Z,950.65
2022-11-18T11:11:18.483Z,950.68
2022-11-18T11:12:18.463Z,950.65
2022-11-18T11:13:18.469Z,950.61
2022-11-18T11:14:18.798Z,950.64
2022-11-18T11:15:18.425Z,950.66
2022-11-18T11:16:21.089Z,950.63
2022-11-18T11:17:19.564Z,950.64
2022-11-18T11:18:18.408Z,950.65
2022-11-18T11:19:18.429Z,950.72
2022-11-18T11:20:18.364Z,950.68
2022-11-18T11:21:18.413Z,950.75
2022-11-18T11:22:18.359Z,950.69
2022-11-18T11:23:23.442Z,950.75
2022-11-18T11:24:19.622Z,950.78
2022-11-18T11:25:18.827Z,950.71
2022-11-18T11:28:19.952Z,950.75
2022-11-18T11:29:18.664Z,950.71
2022-11-18T11:30:18.280Z,950.72
2022-11-18T11:31:18.260Z,950.70
2022-11-18T11:32:18.226Z,950.72
2022-11-18T11:33:18.239Z,950.69
2022-11-18T11:34:18.236Z,950.76
2022-11-18T11:35:18.231Z,950.71
2022-11-18T11:36:18.215Z,950.67
2022-11-18T11:37:18.171Z,950.72
2022-11-18T11:38:18.162Z,950.70
2022-11-18T11:39:18.584Z,950.72
2022-11-18T11:40:18.162Z,950.75
2022-11-18T11:41:18.152Z,950.70
2022-11-18T11:42:18.148Z,950.75
2022-11-18T11:43:18.104Z,950.71
2022-11-18T11:44:18.103Z,950.74
2022-11-18T11:45:18.084Z,950.76
2022-11-18T11:46:18.094Z,950.77
2022-11-18T11:47:18.084Z,950.78
2022-11-18T11:48:18.045Z,950.84
2022-11-18T11:49:18.453Z,950.81
2022-11-18T11:50:18.022Z,950.83
2022-11-18T11:51:18.064Z,950.86
2022-11-18T11:52:18.014Z,950.83
2022-11-18T11:53:18.029Z,950.89
2022-11-18T11:54:17.981Z,950.81
2022-11-18T11:55:17.975Z,950.81
2022-11-18T11:56:22.417Z,950.85
2022-11-18T11:57:18.969Z,950.87
2022-11-18T11:58:17.954Z,950.85
2022-11-18T11:59:18.173Z,950.82
2022-11-18T12:00:17.914Z,950.81
2022-11-18T12:01:17.909Z,950.87
2022-11-18T12:02:17.951Z,950.84
2022-11-18T12:03:17.931Z,950.92
2022-11-18T12:04:17.899Z,950.92
2022-11-18T12:05:17.900Z,950.96
2022-11-18T12:06:17.845Z,950.98
2022-11-18T12:07:17.997Z,951.04
2022-11-18T12:08:17.831Z,950.93
2022-11-18T12:09:18.167Z,950.96
2022-11-18T12:10:17.849Z,951.00
2022-11-18T12:11:17.835Z,950.97
2022-11-18T12:12:17.780Z,951.05
2022-11-18T12:13:17.788Z,951.05
2022-11-18T12:14:17.779Z,951.11
2022-11-18T12:15:17.764Z,951.03
2022-11-18T12:16:17.772Z,951.06
2022-11-18T12:17:17.720Z,951.06
2022-11-18T12:18:17.716Z,951.06
2022-11-18T12:19:18.034Z,951.06
2022-11-18T12:20:17.743Z,951.09
2022-11-18T12:21:17.700Z,951.08
2022-11-18T12:22:17.665Z,951.04
2022-11-18T12:23:17.673Z,951.10
2022-11-18T12:24:17.654Z,951.09
2022-11-18T12:25:17.643Z,951.08
2022-11-18T12:26:17.644Z,951.07
2022-11-18T12:27:17.646Z,951.04
2022-11-18T12:28:17.594Z,951.08
2022-11-18T12:29:17.938Z,951.10
2022-11-18T12:30:17.609Z,951.08